Time,TemperatureF,DewpointF,PressureIn,WindDirection,WindDirectionDegrees,WindSpeedMPH,WindSpeedGustMPH,Humidity,HourlyPrecipIn,Conditions,Clouds,dailyrainin,SoftwareType,DateUTC
2013-04-25 00:02:00,51.0,46.0,30.25,NNE,24,2.0,16.0,82,0.00,,,0.77,,2013-04-25 05:02:00,
2013-04-25 00:12:00,51.0,46.0,30.25,NNE,24,2.0,16.0,82,0.00,,,0.77,,2013-04-25 05:12:00,
2013-04-25 00:21:00,51.0,46.0,30.25,NNE,12,0.0,0.0,82,0.00,,,0.77,,2013-04-25 05:21:00,
2013-04-25 00:32:00,51.0,46.0,30.25,NE,38,0.0,3.0,82,0.00,,,0.77,,2013-04-25 05:32:00,
2013-04-25 00:42:00,51.0,46.0,30.25,NE,38,0.0,3.0,82,0.00,,,0.77,,2013-04-25 05:42:00,
2013-04-25 00:52:00,51.0,46.0,30.25,NNE,33,0.0,5.0,82,0.00,,,0.77,,2013-04-25 05:52:00,
2013-04-25 01:02:00,50.0,45.0,30.25,NNE,33,0.0,5.0,83,0.00,,,0.77,,2013-04-25 06:02:00,
2013-04-25 01:11:00,50.0,45.0,30.25,NNE,33,0.0,5.0,83,0.00,,,0.77,,2013-04-25 06:11:00,
2013-04-25 01:22:00,50.0,45.0,30.25,North,350,1.0,5.0,83,0.00,,,0.77,,2013-04-25 06:22:00,
2013-04-25 01:31:00,50.0,45.0,30.25,North,9,1.0,5.0,84,0.00,,,0.77,,2013-04-25 06:31:00,
2013-04-25 01:41:00,50.0,45.0,30.25,NE,56,1.0,5.0,83,0.00,,,0.77,,2013-04-25 06:41:00,
2013-04-25 01:52:00,50.0,45.0,30.25,NE,56,1.0,5.0,83,0.00,,,0.77,,2013-04-25 06:52:00,
2013-04-25 02:01:00,50.0,45.0,30.24,NNE,33,0.0,5.0,84,0.00,,,0.77,,2013-04-25 07:01:00,
2013-04-25 02:11:00,50.0,45.0,30.24,WNW,302,0.0,5.0,83,0.00,,,0.77,,2013-04-25 07:11:00,
2013-04-25 02:22:00,50.0,45.0,30.24,WNW,302,0.0,5.0,83,0.00,,,0.77,,2013-04-25 07:22:00,
2013-04-25 02:32:00,50.0,45.0,30.24,NE,38,2.0,5.0,82,0.00,,,0.77,,2013-04-25 07:32:00,
2013-04-25 02:42:00,50.0,45.0,30.24,NE,38,2.0,5.0,82,0.00,,,0.77,,2013-04-25 07:42:00,
2013-04-25 02:52:00,50.0,45.0,30.24,NNE,33,2.0,6.0,82,0.00,,,0.77,,2013-04-25 07:52:00,
2013-04-25 03:01:00,50.0,44.0,30.24,NE,35,3.0,10.0,80,0.00,,,0.77,,2013-04-25 08:01:00,
2013-04-25 03:11:00,50.0,44.0,30.24,NE,35,3.0,10.0,80,0.00,,,0.77,,2013-04-25 08:11:00,
2013-04-25 03:21:00,49.0,43.0,30.24,North,5,1.0,10.0,79,0.00,,,0.77,,2013-04-25 08:21:00,
2013-04-25 03:31:00,49.0,42.0,30.24,NE,37,0.0,10.0,78,0.00,,,0.77,,2013-04-25 08:31:00,
2013-04-25 03:41:00,49.0,42.0,30.24,NE,37,0.0,10.0,78,0.00,,,0.77,,2013-04-25 08:41:00,
2013-04-25 03:52:00,49.0,43.0,30.23,NNE,27,0.0,10.0,79,0.00,,,0.77,,2013-04-25 08:52:00,
2013-04-25 04:01:00,48.0,42.0,30.25,NNE,32,1.0,10.0,80,0.00,,,0.77,,2013-04-25 09:01:00,
2013-04-25 04:11:00,48.0,42.0,30.25,NNE,32,1.0,10.0,80,0.00,,,0.77,,2013-04-25 09:11:00,
2013-04-25 04:21:00,47.0,42.0,30.25,NE,38,0.0,10.0,82,0.00,,,0.77,,2013-04-25 09:21:00,
2013-04-25 04:33:00,47.0,42.0,30.26,NNE,13,0.0,10.0,83,0.00,,,0.77,,2013-04-25 09:33:00,
2013-04-25 04:42:00,47.0,42.0,30.26,NNE,13,0.0,10.0,83,0.00,,,0.77,,2013-04-25 09:42:00,
2013-04-25 04:52:00,46.0,41.0,30.27,NW,324,0.0,10.0,84,0.00,,,0.77,,2013-04-25 09:52:00,
2013-04-25 05:02:00,46.0,42.0,30.27,North,0,0.0,10.0,85,0.00,,,0.77,,2013-04-25 10:02:00,
2013-04-25 05:12:00,46.0,42.0,30.27,North,0,0.0,10.0,85,0.00,,,0.77,,2013-04-25 10:12:00,
2013-04-25 05:22:00,46.0,42.0,30.28,North,0,0.0,10.0,86,0.00,,,0.77,,2013-04-25 10:22:00,
2013-04-25 05:32:00,46.0,42.0,30.28,North,0,0.0,10.0,87,0.00,,,0.77,,2013-04-25 10:32:00,
2013-04-25 05:42:00,46.0,42.0,30.28,North,0,0.0,10.0,87,0.00,,,0.77,,2013-04-25 10:42:00,
2013-04-25 05:53:00,46.0,42.0,30.27,North,0,0.0,10.0,87,0.00,,,0.77,,2013-04-25 10:53:00,
2013-04-25 06:02:00,46.0,43.0,30.27,North,6,1.0,10.0,88,0.00,,,0.77,,2013-04-25 11:02:00,
2013-04-25 06:12:00,46.0,43.0,30.27,North,6,1.0,10.0,88,0.00,,,0.77,,2013-04-25 11:12:00,
2013-04-25 06:22:00,45.0,42.0,30.28,North,9,0.0,10.0,88,0.00,,,0.77,,2013-04-25 11:22:00,
2013-04-25 06:32:00,45.0,42.0,30.29,North,9,0.0,10.0,89,0.00,,,0.77,,2013-04-25 11:32:00,
2013-04-25 06:42:00,45.0,42.0,30.29,North,9,0.0,10.0,89,0.00,,,0.77,,2013-04-25 11:42:00,
2013-04-25 06:52:00,45.0,42.0,30.30,North,9,0.0,10.0,90,0.00,,,0.77,,2013-04-25 11:52:00,
2013-04-25 07:01:00,44.0,42.0,30.29,North,9,0.0,10.0,91,0.00,,,0.77,,2013-04-25 12:01:00,
2013-04-25 07:12:00,44.0,42.0,30.29,North,9,0.0,10.0,91,0.00,,,0.77,,2013-04-25 12:12:00,
2013-04-25 07:21:00,44.0,42.0,30.30,NE,38,0.0,10.0,91,0.00,,,0.77,,2013-04-25 12:21:00,
2013-04-25 07:31:00,45.0,43.0,30.30,NNE,33,1.0,10.0,91,0.00,,,0.77,,2013-04-25 12:31:00,
2013-04-25 07:41:00,45.0,43.0,30.30,NNE,33,1.0,10.0,91,0.00,,,0.77,,2013-04-25 12:41:00,
2013-04-25 07:52:00,45.0,43.0,30.31,North,359,0.0,10.0,91,0.00,,,0.77,,2013-04-25 12:52:00,
2013-04-25 08:02:00,46.0,43.0,30.32,ENE,57,1.0,10.0,89,0.00,,,0.77,,2013-04-25 13:02:00,
2013-04-25 08:11:00,46.0,43.0,30.32,ENE,57,1.0,10.0,89,0.00,,,0.77,,2013-04-25 13:11:00,
2013-04-25 08:21:00,47.0,44.0,30.32,NNE,13,0.0,10.0,88,0.00,,,0.77,,2013-04-25 13:21:00,
2013-04-25 08:32:00,47.0,43.0,30.33,NE,54,1.0,10.0,87,0.00,,,0.77,,2013-04-25 13:32:00,
2013-04-25 08:42:00,47.0,43.0,30.33,NE,54,1.0,10.0,87,0.00,,,0.77,,2013-04-25 13:42:00,
2013-04-25 08:52:00,48.0,44.0,30.33,NE,38,0.0,10.0,85,0.00,,,0.74,,2013-04-25 13:52:00,
2013-04-25 09:01:00,49.0,44.0,30.34,NE,47,1.0,10.0,83,0.00,,,0.64,,2013-04-25 14:01:00,
2013-04-25 09:11:00,49.0,44.0,30.34,NE,47,1.0,10.0,83,0.00,,,0.64,,2013-04-25 14:11:00,
2013-04-25 09:21:00,49.0,43.0,30.34,ENE,59,2.0,10.0,81,0.00,,,0.57,,2013-04-25 14:21:00,
2013-04-25 09:32:00,50.0,44.0,30.34,NNE,26,0.0,10.0,80,0.00,,,0.54,,2013-04-25 14:32:00,
2013-04-25 09:42:00,50.0,44.0,30.34,NNE,26,0.0,10.0,80,0.00,,,0.54,,2013-04-25 14:42:00,
2013-04-25 09:52:00,51.0,44.0,30.35,NNE,27,2.0,10.0,77,0.00,,,0.47,,2013-04-25 14:52:00,
2013-04-25 10:02:00,52.0,43.0,30.35,NNE,33,3.0,10.0,72,0.00,,,0.40,,2013-04-25 15:02:00,
2013-04-25 10:11:00,54.0,44.0,30.35,NNE,15,5.0,10.0,70,0.00,,,0.35,,2013-04-25 15:11:00,
2013-04-25 10:21:00,54.0,44.0,30.35,NNE,15,5.0,10.0,70,0.00,,,0.35,,2013-04-25 15:21:00,
2013-04-25 10:33:00,55.0,43.0,30.35,ENE,73,1.0,10.0,65,0.00,,,0.30,,2013-04-25 15:33:00,
2013-04-25 10:42:00,55.0,43.0,30.35,ENE,73,1.0,10.0,65,0.00,,,0.30,,2013-04-25 15:42:00,
2013-04-25 10:53:00,56.0,44.0,30.35,ENE,78,0.0,10.0,65,0.00,,,0.27,,2013-04-25 15:53:00,
2013-04-25 11:02:00,57.0,44.0,30.35,NNE,28,0.0,10.0,62,0.00,,,0.24,,2013-04-25 16:02:00,
2013-04-25 11:13:00,57.0,44.0,30.35,NNE,28,0.0,10.0,62,0.00,,,0.24,,2013-04-25 16:13:00,
2013-04-25 11:24:00,58.0,44.0,30.35,North,9,2.0,10.0,60,0.00,,,0.23,,2013-04-25 16:24:00,
2013-04-25 11:32:00,59.0,45.0,30.35,NE,38,2.0,10.0,60,0.00,,,0.23,,2013-04-25 16:32:00,
2013-04-25 11:42:00,59.0,45.0,30.35,NE,38,2.0,10.0,60,0.00,,,0.23,,2013-04-25 16:42:00,
2013-04-25 11:52:00,60.0,45.0,30.35,NNE,19,2.0,10.0,57,0.00,,,0.22,,2013-04-25 16:52:00,
2013-04-25 12:02:00,62.0,46.0,30.34,NNE,29,0.0,10.0,56,0.00,,,0.19,,2013-04-25 17:02:00,
2013-04-25 12:11:00,62.0,46.0,30.34,NNE,29,0.0,10.0,56,0.00,,,0.19,,2013-04-25 17:11:00,
2013-04-25 12:22:00,63.0,45.0,30.33,NE,54,1.0,10.0,51,0.01,,,0.17,,2013-04-25 17:22:00,
2013-04-25 12:32:00,65.0,48.0,30.33,SE,125,0.0,10.0,54,0.01,,,0.14,,2013-04-25 17:32:00,
2013-04-25 12:42:00,65.0,48.0,30.33,SE,125,0.0,10.0,54,0.01,,,0.14,,2013-04-25 17:42:00,
2013-04-25 12:53:00,65.0,45.0,30.32,NNE,23,2.0,10.0,48,0.01,,,0.11,,2013-04-25 17:53:00,
2013-04-25 13:01:00,66.0,46.0,30.31,North,2,0.0,10.0,49,0.01,,,0.08,,2013-04-25 18:01:00,
2013-04-25 13:11:00,66.0,46.0,30.31,North,2,0.0,10.0,49,0.01,,,0.08,,2013-04-25 18:11:00,
2013-04-25 13:21:00,66.0,44.0,30.30,NE,40,2.0,10.0,45,0.00,,,0.05,,2013-04-25 18:21:00,
2013-04-25 13:32:00,67.0,46.0,30.30,NE,36,0.0,10.0,46,0.00,,,0.04,,2013-04-25 18:32:00,
2013-04-25 13:42:00,67.0,46.0,30.30,NE,36,0.0,10.0,46,0.00,,,0.04,,2013-04-25 18:42:00,
2013-04-25 13:53:00,68.0,45.0,30.30,NNE,33,3.0,10.0,43,0.00,,,0.03,,2013-04-25 18:53:00,
2013-04-25 14:01:00,69.0,46.0,30.30,NW,324,0.0,10.0,44,0.00,,,0.01,,2013-04-25 19:01:00,
2013-04-25 14:12:00,69.0,46.0,30.30,NW,324,0.0,10.0,44,0.00,,,0.01,,2013-04-25 19:12:00,
2013-04-25 14:21:00,69.0,44.0,30.30,NE,38,1.0,11.0,40,0.00,,,0.01,,2013-04-25 19:21:00,
2013-04-25 14:31:00,70.0,44.0,30.30,NNW,328,0.0,11.0,39,0.00,,,0.01,,2013-04-25 19:31:00,
2013-04-25 14:41:00,70.0,44.0,30.30,NNW,328,0.0,11.0,39,0.00,,,0.01,,2013-04-25 19:41:00,
2013-04-25 14:52:00,71.0,42.0,30.30,East,87,2.0,11.0,35,0.00,,,0.01,,2013-04-25 19:52:00,
2013-04-25 15:01:00,71.0,43.0,30.30,NE,39,3.0,11.0,36,0.00,,,0.01,,2013-04-25 20:01:00,
2013-04-25 15:11:00,71.0,43.0,30.30,NE,39,3.0,11.0,36,0.00,,,0.01,,2013-04-25 20:11:00,
2013-04-25 15:22:00,71.0,43.0,30.29,NE,47,0.0,11.0,37,0.00,,,0.01,,2013-04-25 20:22:00,
2013-04-25 15:32:00,72.0,44.0,30.29,NE,36,3.0,11.0,36,0.00,,,0.01,,2013-04-25 20:32:00,
2013-04-25 15:42:00,72.0,44.0,30.29,NE,36,3.0,11.0,36,0.00,,,0.01,,2013-04-25 20:42:00,
2013-04-25 15:52:00,72.0,41.0,30.28,NNE,19,0.0,11.0,33,0.00,,,0.01,,2013-04-25 20:52:00,
2013-04-25 16:01:00,72.0,43.0,30.28,NE,45,0.0,11.0,35,0.00,,,0.01,,2013-04-25 21:01:00,
2013-04-25 16:11:00,72.0,43.0,30.28,NE,45,0.0,11.0,35,0.00,,,0.01,,2013-04-25 21:11:00,
2013-04-25 16:21:00,72.0,41.0,30.27,North,352,0.0,11.0,32,0.00,,,0.01,,2013-04-25 21:21:00,
2013-04-25 16:33:00,72.0,39.0,30.27,SE,139,0.0,11.0,30,0.00,,,0.01,,2013-04-25 21:33:00,
2013-04-25 16:42:00,72.0,39.0,30.27,SE,139,0.0,11.0,30,0.00,,,0.01,,2013-04-25 21:42:00,
2013-04-25 16:53:00,72.0,40.0,30.27,NNE,22,0.0,11.0,31,0.00,,,0.01,,2013-04-25 21:53:00,
2013-04-25 17:02:00,73.0,41.0,30.26,NNE,25,0.0,11.0,32,0.00,,,0.01,,2013-04-25 22:02:00,
2013-04-25 17:12:00,73.0,41.0,30.26,NNE,25,0.0,11.0,32,0.00,,,0.01,,2013-04-25 22:12:00,
2013-04-25 17:22:00,73.0,41.0,30.26,SSW,197,0.0,11.0,32,0.00,,,0.01,,2013-04-25 22:22:00,
2013-04-25 17:32:00,73.0,41.0,30.26,North,7,0.0,11.0,32,0.00,,,0.01,,2013-04-25 22:32:00,
2013-04-25 17:42:00,73.0,41.0,30.26,North,7,0.0,11.0,32,0.00,,,0.01,,2013-04-25 22:42:00,
2013-04-25 17:53:00,74.0,41.0,30.27,West,265,0.0,11.0,31,0.00,,,0.01,,2013-04-25 22:53:00,
2013-04-25 18:02:00,73.0,41.0,30.27,NNE,25,0.0,11.0,31,0.00,,,0.01,,2013-04-25 23:02:00,
2013-04-25 18:12:00,73.0,41.0,30.27,NNE,25,0.0,11.0,31,0.00,,,0.01,,2013-04-25 23:12:00,
2013-04-25 18:22:00,72.0,41.0,30.26,NNE,33,0.0,11.0,32,0.00,,,0.01,,2013-04-25 23:22:00,
2013-04-25 18:32:00,71.0,40.0,30.27,ENE,78,0.0,11.0,33,0.00,,,0.01,,2013-04-25 23:32:00,
2013-04-25 18:41:00,71.0,40.0,30.27,ENE,78,0.0,11.0,33,0.00,,,0.01,,2013-04-25 23:41:00,
2013-04-25 18:52:00,70.0,44.0,30.27,ENE,78,0.0,11.0,39,0.00,,,0.01,,2013-04-25 23:52:00,
2013-04-25 19:01:00,68.0,44.0,30.26,ENE,78,0.0,11.0,42,0.00,,,0.01,,2013-04-26 00:01:00,
2013-04-25 19:11:00,68.0,44.0,30.26,ENE,78,0.0,11.0,42,0.00,,,0.01,,2013-04-26 00:11:00,
2013-04-25 19:21:00,66.0,43.0,30.26,ENE,78,0.0,11.0,44,0.00,,,0.01,,2013-04-26 00:21:00,
2013-04-25 19:31:00,64.0,43.0,30.26,ENE,78,0.0,11.0,47,0.00,,,0.01,,2013-04-26 00:31:00,
2013-04-25 19:41:00,64.0,43.0,30.26,ENE,78,0.0,11.0,47,0.00,,,0.01,,2013-04-26 00:41:00,
2013-04-25 19:52:00,63.0,43.0,30.26,ENE,78,0.0,11.0,48,0.00,,,0.01,,2013-04-26 00:52:00,
2013-04-25 20:01:00,61.0,44.0,30.27,ENE,78,0.0,11.0,53,0.00,,,0.01,,2013-04-26 01:01:00,
2013-04-25 20:11:00,61.0,44.0,30.27,ENE,78,0.0,11.0,53,0.00,,,0.01,,2013-04-26 01:11:00,
2013-04-25 20:21:00,60.0,44.0,30.27,ENE,78,0.0,11.0,56,0.00,,,0.01,,2013-04-26 01:21:00,
2013-04-25 20:31:00,59.0,44.0,30.27,ENE,78,0.0,11.0,58,0.00,,,0.01,,2013-04-26 01:31:00,
2013-04-25 20:41:00,59.0,44.0,30.27,ENE,78,0.0,11.0,58,0.00,,,0.01,,2013-04-26 01:41:00,
2013-04-25 20:52:00,58.0,45.0,30.27,ENE,78,0.0,11.0,61,0.00,,,0.01,,2013-04-26 01:52:00,
2013-04-25 21:01:00,57.0,45.0,30.28,ENE,78,0.0,11.0,65,0.00,,,0.01,,2013-04-26 02:01:00,
2013-04-25 21:11:00,57.0,45.0,30.28,ENE,78,0.0,11.0,65,0.00,,,0.01,,2013-04-26 02:11:00,
2013-04-25 21:21:00,55.0,44.0,30.28,ENE,78,0.0,11.0,67,0.00,,,0.01,,2013-04-26 02:21:00,
2013-04-25 21:32:00,55.0,44.0,30.29,ENE,78,0.0,11.0,67,0.00,,,0.01,,2013-04-26 02:32:00,
2013-04-25 21:42:00,55.0,44.0,30.29,ENE,78,0.0,11.0,67,0.00,,,0.01,,2013-04-26 02:42:00,
2013-04-25 21:52:00,54.0,44.0,30.29,ENE,78,0.0,11.0,69,0.00,,,0.01,,2013-04-26 02:52:00,
2013-04-25 22:01:00,54.0,45.0,30.29,ENE,78,0.0,11.0,71,0.00,,,0.01,,2013-04-26 03:01:00,
2013-04-25 22:11:00,54.0,45.0,30.29,ENE,78,0.0,11.0,71,0.00,,,0.01,,2013-04-26 03:11:00,
2013-04-25 22:21:00,53.0,44.0,30.29,ENE,78,0.0,11.0,71,0.00,,,0.01,,2013-04-26 03:21:00,
2013-04-25 22:33:00,53.0,45.0,30.29,ENE,78,0.0,11.0,74,0.00,,,0.01,,2013-04-26 03:33:00,
2013-04-25 22:43:00,53.0,45.0,30.29,ENE,78,0.0,11.0,74,0.00,,,0.01,,2013-04-26 03:43:00,
2013-04-25 22:53:00,52.0,44.0,30.29,ENE,78,0.0,11.0,74,0.00,,,0.01,,2013-04-26 03:53:00,
2013-04-25 23:02:00,52.0,44.0,30.29,ENE,78,0.0,11.0,75,0.00,,,0.01,,2013-04-26 04:02:00,
2013-04-25 23:12:00,52.0,44.0,30.29,ENE,78,0.0,11.0,75,0.00,,,0.01,,2013-04-26 04:12:00,
2013-04-25 23:22:00,51.0,44.0,30.29,ENE,78,0.0,11.0,77,0.00,,,0.01,,2013-04-26 04:22:00,
2013-04-25 23:32:00,51.0,44.0,30.28,ENE,78,0.0,11.0,78,0.00,,,0.01,,2013-04-26 04:32:00,
2013-04-25 23:43:00,51.0,44.0,30.28,ENE,78,0.0,11.0,78,0.00,,,0.01,,2013-04-26 04:43:00,
2013-04-25 23:53:00,51.0,44.0,30.28,ENE,78,0.0,11.0,78,0.00,,,0.01,,2013-04-26 04:53:00,